sensor_id;sensor_type;location;lat;lon;timestamp;P1;durP1;ratioP1;P2;durP2;ratioP2
29026;SDS011;16120;48.608;9.092;2024-03-22T00:00:45;112.17;;;9.50;;
29026;SDS011;16120;48.608;9.092;2024-03-22T00:04:40;112.90;;;9.57;;
29026;SDS011;16120;48.608;9.092;2024-03-22T00:08:36;112.10;;;9.33;;
29026;SDS011;16120;48.608;9.092;2024-03-22T00:12:32;111.70;;;9.60;;
29026;SDS011;16120;48.608;9.092;2024-03-22T00:16:27;111.70;;;9.50;;
29026;SDS011;16120;48.608;9.092;2024-03-22T00:20:22;112.17;;;9.30;;
29026;SDS011;16120;48.608;9.092;2024-03-22T00:24:19;116.33;;;9.60;;
29026;SDS011;16120;48.608;9.092;2024-03-22T00:28:14;112.00;;;9.50;;
29026;SDS011;16120;48.608;9.092;2024-03-22T00:32:09;112.17;;;8.90;;
29026;SDS011;16120;48.608;9.092;2024-03-22T00:36:04;111.30;;;9.37;;
29026;SDS011;16120;48.608;9.092;2024-03-22T00:40:01;112.47;;;9.63;;
29026;SDS011;16120;48.608;9.092;2024-03-22T00:43:56;112.00;;;9.27;;
29026;SDS011;16120;48.608;9.092;2024-03-22T00:47:52;112.67;;;9.07;;
29026;SDS011;16120;48.608;9.092;2024-03-22T00:51:47;113.57;;;9.30;;
29026;SDS011;16120;48.608;9.092;2024-03-22T00:55:43;113.47;;;8.97;;
29026;SDS011;16120;48.608;9.092;2024-03-22T00:59:39;113.37;;;9.60;;
29026;SDS011;16120;48.608;9.092;2024-03-22T01:03:34;112.97;;;9.07;;
29026;SDS011;16120;48.608;9.092;2024-03-22T01:07:29;114.10;;;9.50;;
29026;SDS011;16120;48.608;9.092;2024-03-22T01:11:25;113.87;;;8.93;;
29026;SDS011;16120;48.608;9.092;2024-03-22T01:15:21;113.37;;;9.70;;
29026;SDS011;16120;48.608;9.092;2024-03-22T01:19:16;113.63;;;9.60;;
29026;SDS011;16120;48.608;9.092;2024-03-22T01:23:11;113.97;;;9.07;;
29026;SDS011;16120;48.608;9.092;2024-03-22T01:27:07;113.00;;;9.57;;
29026;SDS011;16120;48.608;9.092;2024-03-22T01:31:03;113.97;;;9.30;;
29026;SDS011;16120;48.608;9.092;2024-03-22T01:34:58;113.67;;;9.20;;
29026;SDS011;16120;48.608;9.092;2024-03-22T01:38:53;112.75;;;9.25;;
29026;SDS011;16120;48.608;9.092;2024-03-22T01:42:53;113.60;;;8.87;;
29026;SDS011;16120;48.608;9.092;2024-03-22T01:46:50;113.77;;;9.20;;
29026;SDS011;16120;48.608;9.092;2024-03-22T01:50:45;114.20;;;8.80;;
29026;SDS011;16120;48.608;9.092;2024-03-22T01:54:40;114.90;;;9.30;;
29026;SDS011;16120;48.608;9.092;2024-03-22T01:58:37;113.80;;;8.97;;
29026;SDS011;16120;48.608;9.092;2024-03-22T02:02:32;113.77;;;9.03;;
29026;SDS011;16120;48.608;9.092;2024-03-22T02:06:27;114.43;;;9.50;;
29026;SDS011;16120;48.608;9.092;2024-03-22T02:10:23;114.30;;;9.37;;
29026;SDS011;16120;48.608;9.092;2024-03-22T02:14:19;114.43;;;9.30;;
29026;SDS011;16120;48.608;9.092;2024-03-22T02:18:14;114.57;;;8.97;;
29026;SDS011;16120;48.608;9.092;2024-03-22T02:22:10;114.50;;;9.07;;
29026;SDS011;16120;48.608;9.092;2024-03-22T02:26:06;114.47;;;9.40;;
29026;SDS011;16120;48.608;9.092;2024-03-22T02:30:02;114.37;;;9.30;;
29026;SDS011;16120;48.608;9.092;2024-03-22T02:33:57;114.60;;;9.20;;
29026;SDS011;16120;48.608;9.092;2024-03-22T02:37:53;114.07;;;9.77;;
29026;SDS011;16120;48.608;9.092;2024-03-22T02:41:49;115.17;;;10.07;;
29026;SDS011;16120;48.608;9.092;2024-03-22T02:45:45;114.60;;;9.27;;
29026;SDS011;16120;48.608;9.092;2024-03-22T02:49:40;115.00;;;9.40;;
29026;SDS011;16120;48.608;9.092;2024-03-22T02:53:36;114.63;;;9.57;;
29026;SDS011;16120;48.608;9.092;2024-03-22T02:57:32;115.47;;;9.50;;
29026;SDS011;16120;48.608;9.092;2024-03-22T03:01:27;115.30;;;9.70;;
29026;SDS011;16120;48.608;9.092;2024-03-22T03:05:22;115.07;;;9.40;;
29026;SDS011;16120;48.608;9.092;2024-03-22T03:09:18;115.87;;;9.60;;
29026;SDS011;16120;48.608;9.092;2024-03-22T03:13:14;115.00;;;9.70;;
29026;SDS011;16120;48.608;9.092;2024-03-22T03:17:09;114.97;;;10.00;;
29026;SDS011;16120;48.608;9.092;2024-03-22T03:21:05;114.93;;;9.40;;
29026;SDS011;16120;48.608;9.092;2024-03-22T03:25:00;115.00;;;9.53;;
29026;SDS011;16120;48.608;9.092;2024-03-22T03:28:56;115.03;;;9.65;;
29026;SDS011;16120;48.608;9.092;2024-03-22T03:32:51;114.97;;;9.67;;
29026;SDS011;16120;48.608;9.092;2024-03-22T03:36:47;116.43;;;9.67;;
29026;SDS011;16120;48.608;9.092;2024-03-22T03:40:42;114.93;;;9.70;;
29026;SDS011;16120;48.608;9.092;2024-03-22T03:44:38;115.10;;;9.65;;
29026;SDS011;16120;48.608;9.092;2024-03-22T03:48:34;115.93;;;10.53;;
29026;SDS011;16120;48.608;9.092;2024-03-22T03:52:29;115.37;;;9.67;;
29026;SDS011;16120;48.608;9.092;2024-03-22T03:56:24;115.37;;;10.20;;
29026;SDS011;16120;48.608;9.092;2024-03-22T04:00:21;115.07;;;9.93;;
29026;SDS011;16120;48.608;9.092;2024-03-22T04:04:16;115.43;;;9.73;;
29026;SDS011;16120;48.608;9.092;2024-03-22T04:08:11;114.90;;;10.00;;
29026;SDS011;16120;48.608;9.092;2024-03-22T04:12:06;115.23;;;9.80;;
29026;SDS011;16120;48.608;9.092;2024-03-22T04:16:03;115.47;;;10.17;;
29026;SDS011;16120;48.608;9.092;2024-03-22T04:19:58;115.47;;;10.37;;
29026;SDS011;16120;48.608;9.092;2024-03-22T04:23:53;114.73;;;9.47;;
29026;SDS011;16120;48.608;9.092;2024-03-22T04:27:49;115.27;;;10.03;;
29026;SDS011;16120;48.608;9.092;2024-03-22T04:31:45;116.60;;;9.53;;
29026;SDS011;16120;48.608;9.092;2024-03-22T04:35:44;115.10;;;9.77;;
29026;SDS011;16120;48.608;9.092;2024-03-22T04:39:40;114.80;;;9.50;;
29026;SDS011;16120;48.608;9.092;2024-03-22T04:43:35;115.57;;;9.60;;
29026;SDS011;16120;48.608;9.092;2024-03-22T04:47:32;115.03;;;9.57;;
29026;SDS011;16120;48.608;9.092;2024-03-22T04:51:27;115.20;;;10.13;;
29026;SDS011;16120;48.608;9.092;2024-03-22T04:55:22;115.10;;;9.80;;
29026;SDS011;16120;48.608;9.092;2024-03-22T04:59:17;114.83;;;10.10;;
29026;SDS011;16120;48.608;9.092;2024-03-22T05:03:14;114.63;;;9.67;;
29026;SDS011;16120;48.608;9.092;2024-03-22T05:07:09;114.37;;;10.17;;
29026;SDS011;16120;48.608;9.092;2024-03-22T05:11:05;114.60;;;9.40;;
29026;SDS011;16120;48.608;9.092;2024-03-22T05:15:00;114.60;;;9.53;;
29026;SDS011;16120;48.608;9.092;2024-03-22T05:18:56;114.37;;;9.90;;
29026;SDS011;16120;48.608;9.092;2024-03-22T05:22:51;114.17;;;9.97;;
29026;SDS011;16120;48.608;9.092;2024-03-22T05:26:47;115.30;;;9.40;;
29026;SDS011;16120;48.608;9.092;2024-03-22T05:30:42;114.57;;;9.43;;
29026;SDS011;16120;48.608;9.092;2024-03-22T05:34:38;113.70;;;9.67;;
29026;SDS011;16120;48.608;9.092;2024-03-22T05:38:34;114.40;;;9.40;;
29026;SDS011;16120;48.608;9.092;2024-03-22T05:42:29;114.97;;;9.43;;
29026;SDS011;16120;48.608;9.092;2024-03-22T05:46:24;113.57;;;9.20;;
29026;SDS011;16120;48.608;9.092;2024-03-22T05:50:21;114.67;;;9.70;;
29026;SDS011;16120;48.608;9.092;2024-03-22T05:54:16;114.87;;;9.37;;
29026;SDS011;16120;48.608;9.092;2024-03-22T05:58:11;114.20;;;9.40;;
29026;SDS011;16120;48.608;9.092;2024-03-22T06:02:06;113.67;;;9.53;;
29026;SDS011;16120;48.608;9.092;2024-03-22T06:06:03;113.37;;;9.10;;
29026;SDS011;16120;48.608;9.092;2024-03-22T06:09:58;112.07;;;9.70;;
29026;SDS011;16120;48.608;9.092;2024-03-22T06:13:53;111.50;;;10.23;;
29026;SDS011;16120;48.608;9.092;2024-03-22T06:17:49;113.30;;;9.43;;
29026;SDS011;16120;48.608;9.092;2024-03-22T06:21:45;112.37;;;9.20;;
29026;SDS011;16120;48.608;9.092;2024-03-22T06:25:40;112.17;;;9.50;;
29026;SDS011;16120;48.608;9.092;2024-03-22T06:29:35;113.23;;;10.50;;
29026;SDS011;16120;48.608;9.092;2024-03-22T06:33:31;110.67;;;10.00;;
29026;SDS011;16120;48.608;9.092;2024-03-22T06:37:27;112.73;;;10.00;;
29026;SDS011;16120;48.608;9.092;2024-03-22T06:41:22;111.67;;;9.43;;
29026;SDS011;16120;48.608;9.092;2024-03-22T06:45:17;112.27;;;9.60;;
29026;SDS011;16120;48.608;9.092;2024-03-22T06:49:13;111.80;;;9.80;;
29026;SDS011;16120;48.608;9.092;2024-03-22T06:53:09;110.57;;;9.10;;
29026;SDS011;16120;48.608;9.092;2024-03-22T06:57:04;111.77;;;9.43;;
29026;SDS011;16120;48.608;9.092;2024-03-22T07:00:59;111.50;;;9.60;;
29026;SDS011;16120;48.608;9.092;2024-03-22T07:04:55;111.53;;;8.90;;
29026;SDS011;16120;48.608;9.092;2024-03-22T07:08:51;111.27;;;8.60;;
29026;SDS011;16120;48.608;9.092;2024-03-22T07:12:46;110.30;;;8.53;;
29026;SDS011;16120;48.608;9.092;2024-03-22T07:16:42;110.37;;;8.90;;
29026;SDS011;16120;48.608;9.092;2024-03-22T07:20:37;110.10;;;9.33;;
29026;SDS011;16120;48.608;9.092;2024-03-22T07:24:33;109.67;;;8.60;;
29026;SDS011;16120;48.608;9.092;2024-03-22T07:28:28;109.67;;;8.87;;
29026;SDS011;16120;48.608;9.092;2024-03-22T07:32:24;109.60;;;9.07;;
29026;SDS011;16120;48.608;9.092;2024-03-22T07:36:19;109.37;;;8.50;;
29026;SDS011;16120;48.608;9.092;2024-03-22T07:40:16;109.70;;;9.10;;
29026;SDS011;16120;48.608;9.092;2024-03-22T07:44:11;108.57;;;8.43;;
29026;SDS011;16120;48.608;9.092;2024-03-22T07:48:06;108.32;;;8.52;;
29026;SDS011;16120;48.608;9.092;2024-03-22T07:52:02;108.40;;;8.80;;
29026;SDS011;16120;48.608;9.092;2024-03-22T07:55:58;108.30;;;8.73;;
29026;SDS011;16120;48.608;9.092;2024-03-22T07:59:53;108.17;;;8.47;;
29026;SDS011;16120;48.608;9.092;2024-03-22T08:03:49;107.97;;;8.73;;
29026;SDS011;16120;48.608;9.092;2024-03-22T08:07:44;107.32;;;8.27;;
29026;SDS011;16120;48.608;9.092;2024-03-22T08:11:40;107.40;;;8.33;;
29026;SDS011;16120;48.608;9.092;2024-03-22T08:15:35;106.80;;;8.13;;
29026;SDS011;16120;48.608;9.092;2024-03-22T08:19:31;106.67;;;7.87;;
29026;SDS011;16120;48.608;9.092;2024-03-22T08:23:26;106.47;;;8.10;;
29026;SDS011;16120;48.608;9.092;2024-03-22T08:27:22;106.37;;;8.50;;
29026;SDS011;16120;48.608;9.092;2024-03-22T08:31:18;106.57;;;8.50;;
29026;SDS011;16120;48.608;9.092;2024-03-22T08:35:13;105.20;;;8.50;;
29026;SDS011;16120;48.608;9.092;2024-03-22T08:39:08;105.47;;;8.60;;
29026;SDS011;16120;48.608;9.092;2024-03-22T08:43:05;105.07;;;8.30;;
29026;SDS011;16120;48.608;9.092;2024-03-22T08:47:00;105.80;;;8.27;;
29026;SDS011;16120;48.608;9.092;2024-03-22T08:50:55;104.28;;;7.97;;
29026;SDS011;16120;48.608;9.092;2024-03-22T08:54:50;103.23;;;8.40;;
29026;SDS011;16120;48.608;9.092;2024-03-22T08:58:47;103.17;;;8.30;;
29026;SDS011;16120;48.608;9.092;2024-03-22T09:02:42;103.07;;;8.30;;
29026;SDS011;16120;48.608;9.092;2024-03-22T09:06:37;103.30;;;8.23;;
29026;SDS011;16120;48.608;9.092;2024-03-22T09:10:32;103.27;;;8.50;;
29026;SDS011;16120;48.608;9.092;2024-03-22T09:14:29;102.00;;;8.30;;
29026;SDS011;16120;48.608;9.092;2024-03-22T09:18:24;101.77;;;7.97;;
29026;SDS011;16120;48.608;9.092;2024-03-22T09:22:19;100.90;;;7.63;;
29026;SDS011;16120;48.608;9.092;2024-03-22T09:26:15;101.67;;;8.10;;
29026;SDS011;16120;48.608;9.092;2024-03-22T09:30:12;100.90;;;7.67;;
29026;SDS011;16120;48.608;9.092;2024-03-22T09:34:07;100.50;;;7.50;;
29026;SDS011;16120;48.608;9.092;2024-03-22T09:38:02;100.40;;;8.20;;
29026;SDS011;16120;48.608;9.092;2024-03-22T09:41:58;99.97;;;7.97;;
29026;SDS011;16120;48.608;9.092;2024-03-22T09:45:55;100.20;;;8.30;;
29026;SDS011;16120;48.608;9.092;2024-03-22T09:49:50;99.70;;;7.60;;
29026;SDS011;16120;48.608;9.092;2024-03-22T09:53:45;99.80;;;7.83;;
29026;SDS011;16120;48.608;9.092;2024-03-22T09:57:43;99.50;;;7.80;;
29026;SDS011;16120;48.608;9.092;2024-03-22T10:01:40;99.63;;;8.40;;
29026;SDS011;16120;48.608;9.092;2024-03-22T10:05:36;98.93;;;6.97;;
29026;SDS011;16120;48.608;9.092;2024-03-22T10:09:32;99.33;;;8.27;;
29026;SDS011;16120;48.608;9.092;2024-03-22T10:13:27;99.07;;;7.70;;
29026;SDS011;16120;48.608;9.092;2024-03-22T10:17:25;99.60;;;7.80;;
29026;SDS011;16120;48.608;9.092;2024-03-22T10:21:21;98.17;;;7.23;;
29026;SDS011;16120;48.608;9.092;2024-03-22T10:25:16;98.77;;;7.30;;
29026;SDS011;16120;48.608;9.092;2024-03-22T10:29:12;98.60;;;6.90;;
29026;SDS011;16120;48.608;9.092;2024-03-22T10:33:08;98.70;;;8.00;;
29026;SDS011;16120;48.608;9.092;2024-03-22T10:37:03;98.00;;;7.03;;
29026;SDS011;16120;48.608;9.092;2024-03-22T10:40:59;97.70;;;7.40;;
29026;SDS011;16120;48.608;9.092;2024-03-22T10:44:55;98.20;;;8.37;;
29026;SDS011;16120;48.608;9.092;2024-03-22T10:48:51;97.87;;;8.20;;
29026;SDS011;16120;48.608;9.092;2024-03-22T10:52:48;97.87;;;7.73;;
29026;SDS011;16120;48.608;9.092;2024-03-22T10:56:44;97.27;;;7.37;;
29026;SDS011;16120;48.608;9.092;2024-03-22T11:00:41;96.97;;;8.07;;
29026;SDS011;16120;48.608;9.092;2024-03-22T11:04:38;96.90;;;7.97;;
29026;SDS011;16120;48.608;9.092;2024-03-22T11:08:33;97.40;;;7.90;;
29026;SDS011;16120;48.608;9.092;2024-03-22T11:12:28;97.67;;;7.30;;
29026;SDS011;16120;48.608;9.092;2024-03-22T11:16:23;97.20;;;8.53;;
29026;SDS011;16120;48.608;9.092;2024-03-22T11:20:20;97.30;;;7.60;;
29026;SDS011;16120;48.608;9.092;2024-03-22T11:24:15;97.70;;;7.70;;
29026;SDS011;16120;48.608;9.092;2024-03-22T11:28:11;96.90;;;7.50;;
29026;SDS011;16120;48.608;9.092;2024-03-22T11:32:06;97.77;;;7.37;;
29026;SDS011;16120;48.608;9.092;2024-03-22T11:36:03;96.47;;;7.30;;
29026;SDS011;16120;48.608;9.092;2024-03-22T11:39:58;96.50;;;7.23;;
29026;SDS011;16120;48.608;9.092;2024-03-22T11:43:53;96.23;;;7.83;;
29026;SDS011;16120;48.608;9.092;2024-03-22T11:47:49;97.57;;;7.80;;
29026;SDS011;16120;48.608;9.092;2024-03-22T11:51:45;96.27;;;7.57;;
29026;SDS011;16120;48.608;9.092;2024-03-22T11:55:41;96.67;;;7.37;;
29026;SDS011;16120;48.608;9.092;2024-03-22T11:59:36;96.40;;;8.37;;
29026;SDS011;16120;48.608;9.092;2024-03-22T12:03:31;96.70;;;7.40;;
29026;SDS011;16120;48.608;9.092;2024-03-22T12:07:28;96.03;;;6.90;;
29026;SDS011;16120;48.608;9.092;2024-03-22T12:11:23;96.83;;;6.63;;
29026;SDS011;16120;48.608;9.092;2024-03-22T12:15:19;96.30;;;7.00;;
29026;SDS011;16120;48.608;9.092;2024-03-22T12:19:14;95.80;;;6.63;;
29026;SDS011;16120;48.608;9.092;2024-03-22T12:23:11;95.37;;;6.47;;
29026;SDS011;16120;48.608;9.092;2024-03-22T12:27:06;95.70;;;6.57;;
29026;SDS011;16120;48.608;9.092;2024-03-22T12:31:01;95.33;;;6.77;;
29026;SDS011;16120;48.608;9.092;2024-03-22T12:34:56;96.27;;;7.27;;
29026;SDS011;16120;48.608;9.092;2024-03-22T12:38:53;96.27;;;6.50;;
29026;SDS011;16120;48.608;9.092;2024-03-22T12:42:48;96.23;;;7.30;;
29026;SDS011;16120;48.608;9.092;2024-03-22T12:46:43;95.90;;;6.77;;
29026;SDS011;16120;48.608;9.092;2024-03-22T12:50:39;94.63;;;6.22;;
29026;SDS011;16120;48.608;9.092;2024-03-22T12:54:35;94.57;;;6.50;;
29026;SDS011;16120;48.608;9.092;2024-03-22T12:58:30;95.00;;;6.47;;
29026;SDS011;16120;48.608;9.092;2024-03-22T13:02:26;94.13;;;6.20;;
29026;SDS011;16120;48.608;9.092;2024-03-22T13:06:21;95.60;;;6.73;;
29026;SDS011;16120;48.608;9.092;2024-03-22T13:10:18;97.27;;;6.67;;
29026;SDS011;16120;48.608;9.092;2024-03-22T13:14:13;94.70;;;6.27;;
29026;SDS011;16120;48.608;9.092;2024-03-22T13:18:08;94.53;;;6.43;;
29026;SDS011;16120;48.608;9.092;2024-03-22T13:22:03;95.40;;;6.80;;
29026;SDS011;16120;48.608;9.092;2024-03-22T13:26:03;97.63;;;6.70;;
29026;SDS011;16120;48.608;9.092;2024-03-22T13:29:58;95.70;;;6.60;;
29026;SDS011;16120;48.608;9.092;2024-03-22T13:33:53;95.40;;;6.47;;
29026;SDS011;16120;48.608;9.092;2024-03-22T13:37:49;94.90;;;6.27;;
29026;SDS011;16120;48.608;9.092;2024-03-22T13:41:45;95.37;;;6.57;;
29026;SDS011;16120;48.608;9.092;2024-03-22T13:45:41;95.40;;;6.83;;
29026;SDS011;16120;48.608;9.092;2024-03-22T13:49:36;94.50;;;6.50;;
29026;SDS011;16120;48.608;9.092;2024-03-22T13:53:32;94.60;;;6.32;;
29026;SDS011;16120;48.608;9.092;2024-03-22T13:57:28;95.27;;;6.07;;
29026;SDS011;16120;48.608;9.092;2024-03-22T14:01:23;94.07;;;5.93;;
29026;SDS011;16120;48.608;9.092;2024-03-22T14:05:18;95.20;;;6.10;;
29026;SDS011;16120;48.608;9.092;2024-03-22T14:09:14;95.33;;;6.00;;
29026;SDS011;16120;48.608;9.092;2024-03-22T14:13:10;94.87;;;5.97;;
29026;SDS011;16120;48.608;9.092;2024-03-22T14:17:05;98.67;;;6.03;;
29026;SDS011;16120;48.608;9.092;2024-03-22T14:21:01;95.07;;;7.40;;
29026;SDS011;16120;48.608;9.092;2024-03-22T14:24:56;95.10;;;5.83;;
29026;SDS011;16120;48.608;9.092;2024-03-22T14:28:52;94.97;;;6.20;;
29026;SDS011;16120;48.608;9.092;2024-03-22T14:32:48;93.90;;;6.20;;
29026;SDS011;16120;48.608;9.092;2024-03-22T14:36:43;95.07;;;7.83;;
29026;SDS011;16120;48.608;9.092;2024-03-22T14:40:38;94.63;;;7.50;;
29026;SDS011;16120;48.608;9.092;2024-03-22T14:44:34;95.17;;;6.37;;
29026;SDS011;16120;48.608;9.092;2024-03-22T14:48:30;94.77;;;6.40;;
29026;SDS011;16120;48.608;9.092;2024-03-22T14:52:25;95.37;;;6.53;;
29026;SDS011;16120;48.608;9.092;2024-03-22T14:56:20;95.87;;;6.73;;
29026;SDS011;16120;48.608;9.092;2024-03-22T15:00:17;95.93;;;8.33;;
29026;SDS011;16120;48.608;9.092;2024-03-22T15:04:12;95.07;;;6.27;;
29026;SDS011;16120;48.608;9.092;2024-03-22T15:08:07;95.87;;;9.90;;
29026;SDS011;16120;48.608;9.092;2024-03-22T15:12:03;97.17;;;10.10;;
29026;SDS011;16120;48.608;9.092;2024-03-22T15:15:59;94.97;;;7.10;;
29026;SDS011;16120;48.608;9.092;2024-03-22T15:19:54;96.10;;;8.20;;
29026;SDS011;16120;48.608;9.092;2024-03-22T15:23:50;96.17;;;7.20;;
29026;SDS011;16120;48.608;9.092;2024-03-22T15:27:45;97.07;;;6.87;;
29026;SDS011;16120;48.608;9.092;2024-03-22T15:31:41;97.67;;;7.30;;
29026;SDS011;16120;48.608;9.092;2024-03-22T15:35:36;99.37;;;7.10;;
29026;SDS011;16120;48.608;9.092;2024-03-22T15:39:32;97.60;;;7.60;;
29026;SDS011;16120;48.608;9.092;2024-03-22T15:43:27;96.67;;;6.23;;
29026;SDS011;16120;48.608;9.092;2024-03-22T15:47:23;97.60;;;7.30;;
29026;SDS011;16120;48.608;9.092;2024-03-22T15:51:18;98.37;;;7.60;;
29026;SDS011;16120;48.608;9.092;2024-03-22T15:55:14;98.07;;;8.80;;
29026;SDS011;16120;48.608;9.092;2024-03-22T15:59:09;97.57;;;7.07;;
29026;SDS011;16120;48.608;9.092;2024-03-22T16:03:05;98.60;;;7.57;;
29026;SDS011;16120;48.608;9.092;2024-03-22T16:07:01;97.70;;;6.60;;
29026;SDS011;16120;48.608;9.092;2024-03-22T16:10:56;97.70;;;6.83;;
29026;SDS011;16120;48.608;9.092;2024-03-22T16:14:51;98.17;;;6.17;;
29026;SDS011;16120;48.608;9.092;2024-03-22T16:18:47;98.60;;;6.80;;
29026;SDS011;16120;48.608;9.092;2024-03-22T16:22:43;98.77;;;6.67;;
29026;SDS011;16120;48.608;9.092;2024-03-22T16:26:38;98.60;;;6.73;;
29026;SDS011;16120;48.608;9.092;2024-03-22T16:30:33;97.80;;;6.07;;
29026;SDS011;16120;48.608;9.092;2024-03-22T16:34:30;98.57;;;6.80;;
29026;SDS011;16120;48.608;9.092;2024-03-22T16:38:25;98.50;;;6.80;;
29026;SDS011;16120;48.608;9.092;2024-03-22T16:42:20;98.97;;;7.30;;
29026;SDS011;16120;48.608;9.092;2024-03-22T16:46:15;98.47;;;6.40;;
29026;SDS011;16120;48.608;9.092;2024-03-22T16:50:12;99.60;;;6.70;;
29026;SDS011;16120;48.608;9.092;2024-03-22T16:54:07;99.67;;;7.00;;
29026;SDS011;16120;48.608;9.092;2024-03-22T16:58:02;98.87;;;6.43;;
29026;SDS011;16120;48.608;9.092;2024-03-22T17:01:57;99.60;;;7.30;;
29026;SDS011;16120;48.608;9.092;2024-03-22T17:05:54;99.50;;;6.40;;
29026;SDS011;16120;48.608;9.092;2024-03-22T17:09:49;100.67;;;6.90;;
29026;SDS011;16120;48.608;9.092;2024-03-22T17:13:44;99.47;;;6.40;;
29026;SDS011;16120;48.608;9.092;2024-03-22T17:17:39;99.30;;;6.20;;
29026;SDS011;16120;48.608;9.092;2024-03-22T17:21:36;100.10;;;6.60;;
29026;SDS011;16120;48.608;9.092;2024-03-22T17:25:31;99.77;;;6.47;;
29026;SDS011;16120;48.608;9.092;2024-03-22T17:29:26;101.07;;;7.77;;
29026;SDS011;16120;48.608;9.092;2024-03-22T17:33:22;100.00;;;6.33;;
29026;SDS011;16120;48.608;9.092;2024-03-22T17:37:18;100.32;;;7.10;;
29026;SDS011;16120;48.608;9.092;2024-03-22T17:41:13;101.10;;;6.80;;
29026;SDS011;16120;48.608;9.092;2024-03-22T17:45:08;101.40;;;7.47;;
29026;SDS011;16120;48.608;9.092;2024-03-22T17:49:04;100.80;;;6.60;;
29026;SDS011;16120;48.608;9.092;2024-03-22T17:53:00;101.60;;;6.90;;
29026;SDS011;16120;48.608;9.092;2024-03-22T17:56:55;101.30;;;6.83;;
29026;SDS011;16120;48.608;9.092;2024-03-22T18:00:51;101.67;;;7.33;;
29026;SDS011;16120;48.608;9.092;2024-03-22T18:04:46;101.60;;;6.90;;
29026;SDS011;16120;48.608;9.092;2024-03-22T18:08:42;101.67;;;7.23;;
29026;SDS011;16120;48.608;9.092;2024-03-22T18:12:37;101.60;;;6.73;;
29026;SDS011;16120;48.608;9.092;2024-03-22T18:16:33;102.20;;;7.40;;
29026;SDS011;16120;48.608;9.092;2024-03-22T18:20:28;103.07;;;7.30;;
29026;SDS011;16120;48.608;9.092;2024-03-22T18:24:24;102.60;;;7.13;;
29026;SDS011;16120;48.608;9.092;2024-03-22T18:28:19;102.57;;;7.40;;
29026;SDS011;16120;48.608;9.092;2024-03-22T18:32:15;102.57;;;7.23;;
29026;SDS011;16120;48.608;9.092;2024-03-22T18:36:10;102.30;;;7.33;;
29026;SDS011;16120;48.608;9.092;2024-03-22T18:40:07;103.27;;;7.93;;
29026;SDS011;16120;48.608;9.092;2024-03-22T18:44:03;102.97;;;7.20;;
29026;SDS011;16120;48.608;9.092;2024-03-22T18:47:58;104.00;;;7.53;;
29026;SDS011;16120;48.608;9.092;2024-03-22T18:51:53;104.17;;;7.40;;
29026;SDS011;16120;48.608;9.092;2024-03-22T18:55:49;105.23;;;7.60;;
29026;SDS011;16120;48.608;9.092;2024-03-22T18:59:45;103.50;;;7.63;;
29026;SDS011;16120;48.608;9.092;2024-03-22T19:03:40;104.70;;;7.60;;
29026;SDS011;16120;48.608;9.092;2024-03-22T19:07:35;105.20;;;7.30;;
29026;SDS011;16120;48.608;9.092;2024-03-22T19:11:32;105.70;;;7.90;;
29026;SDS011;16120;48.608;9.092;2024-03-22T19:15:27;105.30;;;7.87;;
29026;SDS011;16120;48.608;9.092;2024-03-22T19:19:22;105.37;;;8.10;;
29026;SDS011;16120;48.608;9.092;2024-03-22T19:23:17;105.57;;;7.97;;
29026;SDS011;16120;48.608;9.092;2024-03-22T19:27:14;105.83;;;8.10;;
29026;SDS011;16120;48.608;9.092;2024-03-22T19:31:09;105.97;;;7.83;;
29026;SDS011;16120;48.608;9.092;2024-03-22T19:35:04;106.90;;;8.20;;
29026;SDS011;16120;48.608;9.092;2024-03-22T19:39:00;106.27;;;7.47;;
29026;SDS011;16120;48.608;9.092;2024-03-22T19:42:56;106.70;;;7.90;;
29026;SDS011;16120;48.608;9.092;2024-03-22T19:46:51;107.07;;;8.37;;
29026;SDS011;16120;48.608;9.092;2024-03-22T19:50:46;106.77;;;8.10;;
29026;SDS011;16120;48.608;9.092;2024-03-22T19:54:42;107.67;;;8.70;;
29026;SDS011;16120;48.608;9.092;2024-03-22T19:58:38;107.03;;;8.30;;
29026;SDS011;16120;48.608;9.092;2024-03-22T20:02:33;106.73;;;7.50;;
29026;SDS011;16120;48.608;9.092;2024-03-22T20:06:29;107.45;;;7.88;;
29026;SDS011;16120;48.608;9.092;2024-03-22T20:10:24;107.37;;;7.73;;
29026;SDS011;16120;48.608;9.092;2024-03-22T20:14:20;107.77;;;7.83;;
29026;SDS011;16120;48.608;9.092;2024-03-22T20:18:16;107.73;;;7.67;;
29026;SDS011;16120;48.608;9.092;2024-03-22T20:22:11;108.53;;;8.80;;
29026;SDS011;16120;48.608;9.092;2024-03-22T20:26:06;108.53;;;8.40;;
29026;SDS011;16120;48.608;9.092;2024-03-22T20:30:03;108.00;;;8.03;;
29026;SDS011;16120;48.608;9.092;2024-03-22T20:33:58;108.10;;;8.13;;
